createdAt,value
2019-03-15T00:00:15.914Z,98556.34
2019-03-15T00:00:48.986Z,98556.34
2019-03-15T00:01:22.092Z,98557.22
2019-03-15T00:01:55.399Z,98545.48
2019-03-15T00:02:26.940Z,98538.09
2019-03-15T00:02:58.095Z,98549.41
2019-03-15T00:03:29.316Z,98548.10
2019-03-15T00:04:00.502Z,98552.02
2019-03-15T00:04:31.709Z,98552.02
2019-03-15T00:05:04.306Z,98552.44
2019-03-15T00:05:35.553Z,98519.36
2019-03-15T00:06:06.825Z,98540.25
2019-03-15T00:06:38.068Z,98540.25
2019-03-15T00:07:09.294Z,98551.58
2019-03-15T00:07:41.279Z,98531.98
2019-03-15T00:08:12.568Z,98558.98
2019-03-15T00:08:43.792Z,98558.98
2019-03-15T00:09:15.031Z,98554.19
2019-03-15T00:09:46.281Z,98560.28
2019-03-15T00:10:17.508Z,98548.97
2019-03-15T00:10:48.665Z,98548.97
2019-03-15T00:11:19.878Z,98554.20
2019-03-15T00:11:51.039Z,98538.97
2019-03-15T00:12:22.257Z,98528.09
2019-03-15T00:12:54.391Z,98532.42
2019-03-15T00:13:25.599Z,98542.87
2019-03-15T00:13:56.759Z,98552.90
2019-03-15T00:14:27.974Z,98561.16
2019-03-15T00:14:59.243Z,98541.12
2019-03-15T00:15:30.474Z,98541.12
2019-03-15T00:16:01.631Z,98549.40
2019-03-15T00:16:32.855Z,98555.06
2019-03-15T00:17:04.011Z,98555.06
2019-03-15T00:17:35.251Z,98550.70
2019-03-15T00:18:06.667Z,98556.80
2019-03-15T00:18:37.897Z,98547.22
2019-03-15T00:19:09.059Z,98552.03
2019-03-15T00:19:40.309Z,98552.45
2019-03-15T00:20:11.567Z,98552.45
2019-03-15T00:20:42.793Z,98552.87
2019-03-15T00:21:13.955Z,98537.63
2019-03-15T00:21:45.174Z,98537.63
2019-03-15T00:22:16.339Z,98518.94
2019-03-15T00:22:47.541Z,98540.70
2019-03-15T00:23:18.696Z,98526.34
2019-03-15T00:23:49.909Z,98550.77
2019-03-15T00:24:21.064Z,98550.77
2019-03-15T00:24:52.263Z,98549.45
2019-03-15T00:25:23.474Z,98549.45
2019-03-15T00:25:55.412Z,98551.17
2019-03-15T00:26:27.048Z,98530.70
2019-03-15T00:26:58.229Z,98552.04
2019-03-15T00:27:29.390Z,98552.04
2019-03-15T00:28:00.609Z,98540.32
2019-03-15T00:28:31.771Z,98525.05
2019-03-15T00:29:02.985Z,98525.05
2019-03-15T00:29:34.138Z,98538.99
2019-03-15T00:30:10.164Z,98537.28
2019-03-15T00:30:41.421Z,98545.54
2019-03-15T00:31:12.638Z,98545.54
2019-03-15T00:31:43.784Z,98538.58
2019-03-15T00:32:14.985Z,98542.50
2019-03-15T00:32:46.144Z,98542.50
2019-03-15T00:33:17.363Z,98531.63
2019-03-15T00:33:48.505Z,98527.22
2019-03-15T00:34:19.708Z,98537.27
2019-03-15T00:34:50.865Z,98521.58
2019-03-15T00:35:22.091Z,98537.28
2019-03-15T00:35:53.482Z,98537.28
2019-03-15T00:36:24.694Z,98520.73
2019-03-15T00:36:55.841Z,98520.73
2019-03-15T00:37:27.074Z,98534.22
2019-03-15T00:37:58.232Z,98535.10
2019-03-15T00:38:29.467Z,98537.73
2019-03-15T00:39:00.635Z,98537.27
2019-03-15T00:39:31.843Z,98532.06
2019-03-15T00:40:09.205Z,98532.06
2019-03-15T00:40:40.395Z,98527.27
2019-03-15T00:41:11.574Z,98527.27
2019-03-15T00:41:42.737Z,98525.52
2019-03-15T00:42:13.968Z,98531.19
2019-03-15T00:42:45.131Z,98532.47
2019-03-15T00:43:17.343Z,98532.47
2019-03-15T00:43:49.648Z,98538.15
2019-03-15T00:44:21.112Z,98532.04
2019-03-15T00:44:52.276Z,98519.84
2019-03-15T00:45:23.907Z,98518.96
2019-03-15T00:45:55.095Z,98530.74
2019-03-15T00:46:26.339Z,98531.19
2019-03-15T00:46:57.499Z,98531.19
2019-03-15T00:47:28.718Z,98532.05
2019-03-15T00:47:59.888Z,98532.05
2019-03-15T00:48:31.112Z,98531.17
2019-03-15T00:49:02.271Z,98539.45
2019-03-15T00:49:33.492Z,98514.18
2019-03-15T00:50:07.959Z,98532.06
2019-03-15T00:50:39.192Z,98532.06
2019-03-15T00:51:10.392Z,98536.84
2019-03-15T00:51:41.624Z,98536.84
2019-03-15T00:52:12.912Z,98520.70
2019-03-15T00:52:44.152Z,98520.70
2019-03-15T00:53:15.396Z,98522.48
2019-03-15T00:53:46.612Z,98522.48
2019-03-15T00:54:17.845Z,98534.24
2019-03-15T00:54:49.074Z,98534.23
2019-03-15T00:55:20.296Z,98521.56
2019-03-15T00:55:52.450Z,98521.56
2019-03-15T00:56:23.662Z,98522.88
2019-03-15T00:56:54.824Z,98524.18
2019-03-15T00:57:26.340Z,98524.18
2019-03-15T00:57:57.517Z,98540.77
2019-03-15T00:58:28.731Z,98537.71
2019-03-15T00:58:59.888Z,98522.00
2019-03-15T00:59:31.121Z,98537.71
2019-03-15T01:00:06.477Z,98537.28
2019-03-15T01:00:37.693Z,98537.28
2019-03-15T01:01:09.111Z,98537.71
2019-03-15T01:01:40.318Z,98539.45
2019-03-15T01:02:11.544Z,98545.09
2019-03-15T01:02:44.176Z,98543.38
2019-03-15T01:03:15.663Z,98546.41
2019-03-15T01:03:46.899Z,98544.67
2019-03-15T01:04:18.064Z,98544.67
2019-03-15T01:04:49.267Z,98522.86
2019-03-15T01:05:20.433Z,98536.40
2019-03-15T01:05:51.645Z,98521.55
2019-03-15T01:06:22.881Z,98526.34
2019-03-15T01:06:54.063Z,98543.81
2019-03-15T01:07:25.239Z,98543.81
2019-03-15T01:07:56.435Z,98539.45
2019-03-15T01:08:27.629Z,98539.45
2019-03-15T01:08:58.802Z,98543.82
2019-03-15T01:09:30.007Z,98544.25
2019-03-15T01:10:01.195Z,98525.47
2019-03-15T01:10:32.371Z,98525.47
2019-03-15T01:11:03.547Z,98538.16
2019-03-15T01:11:34.747Z,98537.72
2019-03-15T01:12:06.033Z,98544.67
2019-03-15T01:12:37.228Z,98544.67
2019-03-15T01:13:08.457Z,98529.89
2019-03-15T01:13:39.665Z,98543.38
2019-03-15T01:14:10.865Z,98539.00
2019-03-15T01:14:42.048Z,98535.53
2019-03-15T01:15:13.236Z,98535.53
2019-03-15T01:15:44.417Z,98536.84
2019-03-15T01:16:15.604Z,98531.19
2019-03-15T01:16:46.809Z,98536.84
2019-03-15T01:17:17.992Z,98538.58
2019-03-15T01:17:49.168Z,98538.58
2019-03-15T01:18:20.348Z,98540.75
2019-03-15T01:18:51.542Z,98519.86
2019-03-15T01:19:22.721Z,98535.09
2019-03-15T01:19:53.990Z,98540.32
2019-03-15T01:20:25.183Z,98535.53
2019-03-15T01:20:56.428Z,98535.53
2019-03-15T01:21:27.610Z,98532.92
2019-03-15T01:21:58.798Z,98532.92
2019-03-15T01:22:29.975Z,98540.77
2019-03-15T01:23:01.152Z,98536.39
2019-03-15T01:23:32.422Z,98535.09
2019-03-15T01:24:03.616Z,98522.49
2019-03-15T01:24:34.804Z,98535.52
2019-03-15T01:25:07.068Z,98535.52
2019-03-15T01:25:38.267Z,98537.71
2019-03-15T01:26:09.427Z,98531.63
2019-03-15T01:26:40.614Z,98521.19
2019-03-15T01:27:11.805Z,98518.98
2019-03-15T01:27:42.994Z,98518.98
2019-03-15T01:28:14.179Z,98535.97
2019-03-15T01:28:45.401Z,98536.84
2019-03-15T01:29:16.668Z,98536.84
2019-03-15T01:29:47.843Z,98536.84
2019-03-15T01:30:19.044Z,98532.05
2019-03-15T01:30:50.279Z,98532.05
2019-03-15T01:31:21.573Z,98531.63
2019-03-15T01:31:52.750Z,98532.92
2019-03-15T01:32:24.049Z,98535.09
2019-03-15T01:32:55.227Z,98535.09
2019-03-15T01:33:26.415Z,98523.80
2019-03-15T01:33:57.610Z,98529.43
2019-03-15T01:34:28.795Z,98511.59
2019-03-15T01:35:00.160Z,98511.59
2019-03-15T01:35:33.547Z,98515.95
2019-03-15T01:36:04.600Z,98513.77
2019-03-15T01:36:35.822Z,98513.77
2019-03-15T01:37:07.015Z,98529.87
2019-03-15T01:37:38.225Z,98520.32
2019-03-15T01:38:09.381Z,98515.51
2019-03-15T01:38:40.691Z,98522.05
2019-03-15T01:39:11.854Z,98511.12
2019-03-15T01:39:43.078Z,98526.39
2019-03-15T01:40:15.146Z,98531.20
2019-03-15T01:40:48.873Z,98531.20
2019-03-15T01:41:19.458Z,98518.58
2019-03-15T01:41:50.669Z,98529.87
2019-03-15T01:42:22.251Z,98529.87
2019-03-15T01:42:53.546Z,98536.85
2019-03-15T01:43:24.718Z,98534.24
2019-03-15T01:43:56.316Z,98534.24
2019-03-15T01:44:27.472Z,98513.34
2019-03-15T01:44:58.656Z,98513.34
2019-03-15T01:45:29.817Z,98532.92
2019-03-15T01:46:01.043Z,98532.92
2019-03-15T01:46:32.221Z,98528.59
2019-03-15T01:47:03.499Z,98507.27
2019-03-15T01:47:34.661Z,98515.95
2019-03-15T01:48:05.893Z,98532.51
2019-03-15T01:48:37.050Z,98530.31
2019-03-15T01:49:08.678Z,98529.87
2019-03-15T01:49:39.923Z,98508.13
2019-03-15T01:50:11.144Z,98525.98
2019-03-15T01:50:42.280Z,98525.98
2019-03-15T01:51:13.503Z,98529.45
2019-03-15T01:51:44.653Z,98529.45
2019-03-15T01:52:15.899Z,98505.91
2019-03-15T01:52:47.064Z,98505.91
2019-03-15T01:53:18.272Z,98506.80
2019-03-15T01:53:49.436Z,98515.51
2019-03-15T01:54:20.649Z,98520.73
2019-03-15T01:54:51.807Z,98514.19
2019-03-15T01:55:23.006Z,98526.41
2019-03-15T01:55:54.226Z,98526.41
2019-03-15T01:56:25.437Z,98512.02
2019-03-15T01:56:56.645Z,98511.58
2019-03-15T01:57:27.838Z,98527.70
2019-03-15T01:57:59.014Z,98527.70
2019-03-15T01:58:30.214Z,98516.38
2019-03-15T01:59:01.397Z,98530.31
2019-03-15T01:59:32.617Z,98530.31
2019-03-15T02:00:08.349Z,98529.87
2019-03-15T02:00:39.538Z,98516.80
2019-03-15T02:01:10.837Z,98533.78
2019-03-15T02:01:42.073Z,98533.34
2019-03-15T02:02:13.364Z,98533.34
2019-03-15T02:02:44.558Z,98540.76
2019-03-15T02:03:15.740Z,98532.48
2019-03-15T02:03:46.945Z,98538.15
2019-03-15T02:04:18.131Z,98538.15
2019-03-15T02:04:49.812Z,98527.25
2019-03-15T02:05:21.007Z,98536.40
2019-03-15T02:05:52.191Z,98535.97
2019-03-15T02:06:23.400Z,98540.31
2019-03-15T02:06:55.604Z,98540.31
2019-03-15T02:07:27.183Z,98532.92
2019-03-15T02:07:58.372Z,98537.26
2019-03-15T02:08:29.638Z,98536.84
2019-03-15T02:09:00.887Z,98536.84
2019-03-15T02:09:32.076Z,98514.18
2019-03-15T02:10:06.678Z,98517.66
2019-03-15T02:10:37.874Z,98517.66
2019-03-15T02:11:09.092Z,98535.11
2019-03-15T02:11:40.276Z,98515.05
2019-03-15T02:12:11.484Z,98532.92
2019-03-15T02:12:42.621Z,98518.11
2019-03-15T02:13:13.816Z,98518.11
2019-03-15T02:13:44.983Z,98530.73
2019-03-15T02:14:16.206Z,98536.39
2019-03-15T02:14:47.369Z,98536.39
2019-03-15T02:15:18.739Z,98535.09
2019-03-15T02:15:49.953Z,98535.09
2019-03-15T02:16:21.187Z,98535.98
2019-03-15T02:16:52.359Z,98530.75
2019-03-15T02:17:23.955Z,98529.44
2019-03-15T02:17:55.120Z,98529.89
2019-03-15T02:18:26.393Z,98529.89
2019-03-15T02:18:57.557Z,98532.50
2019-03-15T02:19:28.767Z,98512.88
2019-03-15T02:19:59.918Z,98512.88
2019-03-15T02:20:31.127Z,98528.58
2019-03-15T02:21:02.281Z,98528.58
2019-03-15T02:21:33.491Z,98527.27
2019-03-15T02:22:04.659Z,98537.26
2019-03-15T02:22:35.976Z,98537.26
2019-03-15T02:23:07.136Z,98530.30
2019-03-15T02:23:39.367Z,98530.30
2019-03-15T02:24:10.573Z,98532.91
2019-03-15T02:24:41.857Z,98532.91
2019-03-15T02:25:13.036Z,98518.50
2019-03-15T02:25:44.306Z,98530.28
2019-03-15T02:26:15.495Z,98535.91
2019-03-15T02:26:46.655Z,98535.91
2019-03-15T02:27:17.840Z,98527.25
2019-03-15T02:27:49.026Z,98527.25
2019-03-15T02:28:20.213Z,98529.87
2019-03-15T02:28:51.395Z,98520.70
2019-03-15T02:29:22.598Z,98513.31
2019-03-15T02:29:54.159Z,98530.73
2019-03-15T02:30:25.361Z,98535.09
2019-03-15T02:30:56.545Z,98528.15
2019-03-15T02:31:27.733Z,98528.15
2019-03-15T02:31:58.932Z,98532.06
2019-03-15T02:32:30.109Z,98532.06
2019-03-15T02:33:01.290Z,98533.80
2019-03-15T02:33:33.484Z,98537.28
2019-03-15T02:34:05.073Z,98537.28
2019-03-15T02:34:36.254Z,98537.28
2019-03-15T02:35:07.429Z,98513.30
2019-03-15T02:35:38.608Z,98539.87
2019-03-15T02:36:09.815Z,98541.20
2019-03-15T02:36:40.994Z,98544.23
2019-03-15T02:37:12.219Z,98524.16
2019-03-15T02:37:43.404Z,98524.16
2019-03-15T02:38:14.591Z,98538.55
2019-03-15T02:38:45.875Z,98538.55
2019-03-15T02:39:18.077Z,98542.45
2019-03-15T02:39:49.262Z,98543.74
2019-03-15T02:40:21.396Z,98542.04
2019-03-15T02:40:52.639Z,98542.44
2019-03-15T02:41:24.160Z,98546.81
2019-03-15T02:41:55.463Z,98546.81
2019-03-15T02:42:27.140Z,98517.20
2019-03-15T02:42:58.334Z,98546.38
2019-03-15T02:43:29.548Z,98523.72
2019-03-15T02:44:00.705Z,98540.32
2019-03-15T02:44:31.911Z,98524.61
2019-03-15T02:45:03.787Z,98524.61
2019-03-15T02:45:35.111Z,98546.39
2019-03-15T02:46:06.290Z,98528.97
2019-03-15T02:46:37.613Z,98539.01
2019-03-15T02:47:08.763Z,98539.01
2019-03-15T02:47:39.980Z,98546.84
2019-03-15T02:48:11.272Z,98523.75
2019-03-15T02:48:42.543Z,98537.69
2019-03-15T02:49:13.713Z,98520.71
2019-03-15T02:49:44.949Z,98520.71
2019-03-15T02:50:16.119Z,98532.94
2019-03-15T02:50:47.343Z,98534.67
2019-03-15T02:51:18.527Z,98534.67
2019-03-15T02:51:50.039Z,98532.94
2019-03-15T02:52:21.372Z,98516.78
2019-03-15T02:52:52.573Z,98535.95
2019-03-15T02:53:23.735Z,98524.17
2019-03-15T02:53:54.971Z,98534.23
2019-03-15T02:54:27.318Z,98534.23
2019-03-15T02:54:58.684Z,98532.49
2019-03-15T02:55:29.881Z,98518.96
2019-03-15T02:56:01.072Z,98518.96
2019-03-15T02:56:32.281Z,98535.53
2019-03-15T02:57:03.461Z,98535.53
2019-03-15T02:57:35.475Z,98535.55
2019-03-15T02:58:07.124Z,98540.76
2019-03-15T02:58:38.281Z,98519.86
2019-03-15T02:59:09.462Z,98546.84
2019-03-15T02:59:40.655Z,98520.30
2019-03-15T03:00:11.875Z,98536.85
2019-03-15T03:00:43.034Z,98536.85
2019-03-15T03:01:14.226Z,98534.22
2019-03-15T03:01:45.378Z,98522.48
2019-03-15T03:02:16.547Z,98543.79
2019-03-15T03:02:47.776Z,98543.79
2019-03-15T03:03:18.999Z,98544.25
2019-03-15T03:03:50.167Z,98550.77
2019-03-15T03:04:21.354Z,98550.77
2019-03-15T03:04:52.531Z,98549.91
2019-03-15T03:05:23.890Z,98549.91
2019-03-15T03:05:55.072Z,98546.85
2019-03-15T03:06:27.504Z,98546.85
2019-03-15T03:07:00.252Z,98549.46
2019-03-15T03:07:31.433Z,98551.64
2019-03-15T03:08:02.601Z,98551.64
2019-03-15T03:08:33.760Z,98534.66
2019-03-15T03:09:04.972Z,98549.02
2019-03-15T03:09:36.236Z,98549.02
2019-03-15T03:10:07.429Z,98552.95
2019-03-15T03:10:38.590Z,98549.46
2019-03-15T03:11:09.811Z,98544.26
2019-03-15T03:11:40.960Z,98544.26
2019-03-15T03:12:12.188Z,98550.77
2019-03-15T03:12:44.022Z,98536.84
2019-03-15T03:13:15.468Z,98546.40
2019-03-15T03:13:46.624Z,98546.40
2019-03-15T03:14:17.823Z,98540.33
2019-03-15T03:14:48.989Z,98548.59
2019-03-15T03:15:20.235Z,98552.52
2019-03-15T03:15:52.112Z,98552.52
2019-03-15T03:16:23.507Z,98534.23
2019-03-15T03:16:54.790Z,98549.89
2019-03-15T03:17:26.365Z,98540.33
2019-03-15T03:17:57.583Z,98550.77
2019-03-15T03:18:28.776Z,98549.44
2019-03-15T03:19:01.256Z,98547.28
2019-03-15T03:19:32.648Z,98550.75
2019-03-15T03:20:05.642Z,98537.22
2019-03-15T03:20:36.980Z,98551.64
2019-03-15T03:21:08.200Z,98551.64
2019-03-15T03:21:39.380Z,98547.28
2019-03-15T03:22:10.567Z,98547.28
2019-03-15T03:22:41.815Z,98546.83
2019-03-15T03:23:13.264Z,98551.63
2019-03-15T03:23:44.435Z,98551.63
2019-03-15T03:24:15.649Z,98548.59
2019-03-15T03:24:47.157Z,98546.41
2019-03-15T03:25:18.401Z,98552.95
2019-03-15T03:25:49.625Z,98552.95
2019-03-15T03:26:20.792Z,98532.49
2019-03-15T03:26:52.066Z,98532.49
2019-03-15T03:27:23.489Z,98542.48
2019-03-15T03:27:54.669Z,98542.92
2019-03-15T03:28:25.877Z,98539.45
2019-03-15T03:28:57.158Z,98553.37
2019-03-15T03:29:28.400Z,98553.37
2019-03-15T03:29:59.589Z,98549.47
2019-03-15T03:30:30.821Z,98558.16
2019-03-15T03:31:02.018Z,98558.16
2019-03-15T03:31:33.318Z,98536.84
2019-03-15T03:32:04.548Z,98552.94
2019-03-15T03:32:35.714Z,98553.81
2019-03-15T03:33:06.962Z,98552.05
2019-03-15T03:33:40.457Z,98552.05
2019-03-15T03:34:12.677Z,98558.17
2019-03-15T03:34:44.137Z,98558.17
2019-03-15T03:35:15.299Z,98551.20
2019-03-15T03:35:46.557Z,98551.20
2019-03-15T03:36:17.735Z,98539.84
2019-03-15T03:36:48.879Z,98539.84
2019-03-15T03:37:20.057Z,98535.96
2019-03-15T03:37:51.227Z,98535.96
2019-03-15T03:38:22.399Z,98552.08
2019-03-15T03:38:53.880Z,98555.56
2019-03-15T03:39:25.094Z,98542.93
2019-03-15T03:39:56.260Z,98542.93
2019-03-15T03:40:29.088Z,98554.69
2019-03-15T03:41:00.915Z,98554.69
2019-03-15T03:41:32.161Z,98559.02
2019-03-15T03:42:03.383Z,98556.42
2019-03-15T03:42:34.633Z,98533.75
2019-03-15T03:43:05.889Z,98558.58
2019-03-15T03:43:37.116Z,98563.39
2019-03-15T03:44:08.268Z,98563.39
2019-03-15T03:44:39.478Z,98553.81
2019-03-15T03:45:10.654Z,98564.66
2019-03-15T03:45:41.876Z,98564.66
2019-03-15T03:46:13.036Z,98569.48
2019-03-15T03:46:44.249Z,98565.12
2019-03-15T03:47:15.409Z,98560.31
2019-03-15T03:47:47.608Z,98555.06
2019-03-15T03:48:18.795Z,98566.83
2019-03-15T03:48:50.026Z,98557.66
2019-03-15T03:49:21.258Z,98557.66
2019-03-15T03:49:53.552Z,98568.97
2019-03-15T03:50:24.876Z,98568.53
2019-03-15T03:50:59.725Z,98568.53
2019-03-15T03:51:29.636Z,98568.53
2019-03-15T03:52:00.917Z,98552.01
2019-03-15T03:52:32.208Z,98565.06
2019-03-15T03:53:03.441Z,98565.06
2019-03-15T03:53:34.676Z,98569.41
2019-03-15T03:54:05.834Z,98561.14
2019-03-15T03:54:37.041Z,98568.09
2019-03-15T03:55:08.190Z,98579.83
2019-03-15T03:55:39.405Z,98577.67
2019-03-15T03:56:10.736Z,98571.14
2019-03-15T03:56:41.929Z,98571.14
2019-03-15T03:57:13.154Z,98572.88
2019-03-15T03:57:44.299Z,98572.88
2019-03-15T03:58:15.461Z,98572.45
2019-03-15T03:58:46.649Z,98575.49
2019-03-15T03:59:17.807Z,98575.49
2019-03-15T03:59:48.971Z,98571.56
2019-03-15T04:00:20.157Z,98555.90
2019-03-15T04:00:51.451Z,98572.00
2019-03-15T04:01:22.599Z,98572.00
2019-03-15T04:01:54.038Z,98574.20
2019-03-15T04:02:25.199Z,98574.20
2019-03-15T04:02:56.381Z,98572.47
2019-03-15T04:03:27.734Z,98574.63
2019-03-15T04:03:58.909Z,98578.97
2019-03-15T04:04:30.087Z,98578.53
2019-03-15T04:05:01.296Z,98581.16
2019-03-15T04:05:32.457Z,98581.16
2019-03-15T04:06:03.651Z,98578.55
2019-03-15T04:06:34.827Z,98576.36
2019-03-15T04:07:05.985Z,98576.36
2019-03-15T04:07:37.168Z,98577.67
2019-03-15T04:08:08.350Z,98577.67
2019-03-15T04:08:39.524Z,98578.98
2019-03-15T04:09:10.679Z,98577.67
2019-03-15T04:09:41.896Z,98582.03
2019-03-15T04:10:13.150Z,98582.03
2019-03-15T04:10:44.346Z,98569.83
2019-03-15T04:11:15.522Z,98583.33
2019-03-15T04:11:55.377Z,98583.33
2019-03-15T04:12:19.794Z,98569.38
2019-03-15T04:12:51.022Z,98583.75
2019-03-15T04:13:22.182Z,98583.75
2019-03-15T04:13:53.484Z,98574.60
2019-03-15T04:14:24.693Z,98589.86
2019-03-15T04:14:55.887Z,98588.98
2019-03-15T04:15:27.057Z,98581.13
2019-03-15T04:15:58.310Z,98598.13
2019-03-15T04:16:29.479Z,98588.52
2019-03-15T04:17:00.682Z,98588.52
2019-03-15T04:17:31.829Z,98595.94
2019-03-15T04:18:06.280Z,98579.80
2019-03-15T04:18:36.133Z,98592.01
2019-03-15T04:19:07.316Z,98587.65
2019-03-15T04:19:38.511Z,98595.48
2019-03-15T04:20:11.197Z,98591.56
2019-03-15T04:20:42.549Z,98591.56
2019-03-15T04:21:13.873Z,98587.66
2019-03-15T04:21:46.073Z,98593.75
2019-03-15T04:22:17.251Z,98593.30
2019-03-15T04:22:48.459Z,98593.30
2019-03-15T04:23:19.671Z,98577.61
2019-03-15T04:23:50.871Z,98577.61
2019-03-15T04:24:22.106Z,98593.28
2019-03-15T04:24:53.484Z,98588.94
2019-03-15T04:25:24.713Z,98590.25
2019-03-15T04:25:57.867Z,98578.47
2019-03-15T04:26:29.098Z,98578.47
2019-03-15T04:27:00.280Z,98595.46
2019-03-15T04:27:31.595Z,98596.34
2019-03-15T04:28:02.760Z,98581.94
2019-03-15T04:28:33.961Z,98578.47
2019-03-15T04:29:05.144Z,98578.47
2019-03-15T04:29:36.347Z,98605.02
2019-03-15T04:30:10.429Z,98605.02
2019-03-15T04:30:41.627Z,98602.40
2019-03-15T04:31:12.816Z,98602.40
2019-03-15T04:31:44.080Z,98600.65
2019-03-15T04:32:15.276Z,98599.78
2019-03-15T04:32:46.457Z,98599.78
2019-03-15T04:33:18.695Z,98605.86
2019-03-15T04:33:50.028Z,98604.56
2019-03-15T04:34:21.264Z,98594.96
2019-03-15T04:34:52.480Z,98598.03
2019-03-15T04:35:23.846Z,98600.64
2019-03-15T04:35:55.036Z,98600.64
2019-03-15T04:36:26.208Z,98602.80
2019-03-15T04:36:57.417Z,98602.79
2019-03-15T04:37:28.608Z,98602.79
2019-03-15T04:37:59.824Z,98600.17
2019-03-15T04:38:31.002Z,98590.58
2019-03-15T04:39:03.908Z,98586.67
2019-03-15T04:39:35.089Z,98598.42
2019-03-15T04:40:10.384Z,98598.42
2019-03-15T04:40:43.228Z,98608.02
2019-03-15T04:41:14.436Z,98607.58
2019-03-15T04:41:45.615Z,98607.58
2019-03-15T04:42:16.832Z,98604.95
2019-03-15T04:42:48.001Z,98614.97
2019-03-15T04:43:20.240Z,98613.23
2019-03-15T04:43:51.501Z,98613.23
2019-03-15T04:44:22.739Z,98613.66
2019-03-15T04:44:53.896Z,98613.23
2019-03-15T04:45:25.125Z,98613.23
2019-03-15T04:45:56.267Z,98624.09
2019-03-15T04:46:27.470Z,98623.67
2019-03-15T04:46:58.638Z,98623.67
2019-03-15T04:47:29.865Z,98606.22
2019-03-15T04:48:01.051Z,98621.88
2019-03-15T04:48:32.249Z,98621.88
2019-03-15T04:49:03.439Z,98607.55
2019-03-15T04:49:34.651Z,98621.47
2019-03-15T04:50:06.443Z,98624.94
2019-03-15T04:50:37.620Z,98624.94
2019-03-15T04:51:08.837Z,98619.70
2019-03-15T04:51:40.125Z,98606.20
2019-03-15T04:52:11.322Z,98623.63
2019-03-15T04:52:42.507Z,98623.63
2019-03-15T04:53:13.687Z,98622.73
2019-03-15T04:53:44.843Z,98622.73
2019-03-15T04:54:16.038Z,98628.39
2019-03-15T04:54:47.234Z,98608.81
2019-03-15T04:55:18.439Z,98633.16
2019-03-15T04:55:49.625Z,98633.16
2019-03-15T04:56:20.807Z,98610.09
2019-03-15T04:56:51.987Z,98616.17
2019-03-15T04:57:23.159Z,98635.32
2019-03-15T04:57:54.370Z,98637.92
2019-03-15T04:58:25.526Z,98637.92
2019-03-15T04:58:56.772Z,98635.34
2019-03-15T04:59:27.964Z,98634.48
2019-03-15T04:59:59.133Z,98634.48
2019-03-15T05:00:30.302Z,98632.28
2019-03-15T05:01:01.505Z,98629.67
2019-03-15T05:01:32.672Z,98631.83
2019-03-15T05:02:03.845Z,98631.83
2019-03-15T05:02:35.029Z,98618.33
2019-03-15T05:03:06.199Z,98613.53
2019-03-15T05:03:37.372Z,98634.02
2019-03-15T05:04:08.562Z,98634.02
2019-03-15T05:04:39.758Z,98621.37
2019-03-15T05:05:10.921Z,98634.46
2019-03-15T05:05:42.138Z,98634.46
2019-03-15T05:06:13.306Z,98637.06
2019-03-15T05:06:44.548Z,98637.06
2019-03-15T05:07:15.779Z,98633.16
2019-03-15T05:07:46.985Z,98634.89
2019-03-15T05:08:18.159Z,98634.89
2019-03-15T05:08:49.383Z,98618.31
2019-03-15T05:09:20.558Z,98639.23
2019-03-15T05:09:51.742Z,98634.89
2019-03-15T05:10:23.297Z,98634.89
2019-03-15T05:10:54.544Z,98637.94
2019-03-15T05:11:25.744Z,98638.38
2019-03-15T05:11:57.041Z,98643.16
2019-03-15T05:12:28.244Z,98643.16
2019-03-15T05:12:59.434Z,98633.96
2019-03-15T05:13:30.625Z,98643.56
2019-03-15T05:14:01.818Z,98643.12
2019-03-15T05:14:33.005Z,98652.25
2019-03-15T05:15:07.704Z,98640.52
2019-03-15T05:15:38.893Z,98631.33
2019-03-15T05:16:10.071Z,98631.33
2019-03-15T05:16:41.255Z,98645.30
2019-03-15T05:17:12.435Z,98642.66
2019-03-15T05:17:43.616Z,98641.82
2019-03-15T05:18:14.915Z,98648.77
2019-03-15T05:18:46.116Z,98631.32
2019-03-15T05:19:17.328Z,98631.32
2019-03-15T05:19:48.592Z,98620.42
2019-03-15T05:20:21.286Z,98652.66
2019-03-15T05:20:52.711Z,98652.66
2019-03-15T05:21:24.005Z,98643.08
2019-03-15T05:21:55.193Z,98648.73
2019-03-15T05:22:26.475Z,98630.84
2019-03-15T05:22:57.727Z,98630.84
2019-03-15T05:23:28.911Z,98641.31
2019-03-15T05:24:00.095Z,98632.59
2019-03-15T05:24:31.323Z,98628.66
2019-03-15T05:25:04.479Z,98642.63
2019-03-15T05:25:35.750Z,98642.63
2019-03-15T05:26:06.918Z,98629.09
2019-03-15T05:26:38.132Z,98644.77
2019-03-15T05:27:09.318Z,98648.25
2019-03-15T05:27:40.517Z,98643.47
2019-03-15T05:28:11.722Z,98645.18
2019-03-15T05:28:42.915Z,98645.18
2019-03-15T05:29:14.095Z,98642.57
2019-03-15T05:29:45.672Z,98617.28
2019-03-15T05:30:16.821Z,98646.06
2019-03-15T05:30:48.032Z,98631.22
2019-03-15T05:31:19.192Z,98631.22
2019-03-15T05:31:50.414Z,98650.83
2019-03-15T05:32:21.574Z,98650.83
2019-03-15T05:32:52.814Z,98654.31
2019-03-15T05:33:23.966Z,98651.23
2019-03-15T05:33:55.188Z,98645.15
2019-03-15T05:34:26.416Z,98645.15
2019-03-15T05:34:57.628Z,98646.02
2019-03-15T05:35:28.796Z,98656.03
2019-03-15T05:36:00.053Z,98656.02
2019-03-15T05:36:31.232Z,98651.23
2019-03-15T05:37:02.437Z,98651.23
2019-03-15T05:37:33.615Z,98658.61
2019-03-15T05:38:04.829Z,98656.86
2019-03-15T05:38:36.019Z,98656.86
2019-03-15T05:39:07.329Z,98662.95
2019-03-15T05:39:39.812Z,98660.77
2019-03-15T05:40:11.235Z,98650.27
2019-03-15T05:40:42.535Z,98650.27
2019-03-15T05:41:13.829Z,98655.52
2019-03-15T05:41:45.075Z,98659.45
2019-03-15T05:42:16.297Z,98659.45
2019-03-15T05:42:47.540Z,98648.55
2019-03-15T05:43:18.796Z,98658.99
2019-03-15T05:43:52.987Z,98660.31
2019-03-15T05:44:23.520Z,98669.44
2019-03-15T05:44:55.228Z,98652.44
2019-03-15T05:45:26.437Z,98668.56
2019-03-15T05:45:57.651Z,98668.56
2019-03-15T05:46:28.829Z,98665.08
2019-03-15T05:47:00.043Z,98651.98
2019-03-15T05:47:31.192Z,98651.98
2019-03-15T05:48:02.405Z,98675.53
2019-03-15T05:48:33.571Z,98670.77
2019-03-15T05:49:04.783Z,98653.32
2019-03-15T05:49:35.957Z,98673.81
2019-03-15T05:50:10.983Z,98669.47
2019-03-15T05:50:42.156Z,98680.80
2019-03-15T05:51:13.363Z,98672.95
2019-03-15T05:51:44.515Z,98672.95
2019-03-15T05:52:15.775Z,98677.30
2019-03-15T05:52:46.935Z,98677.30
2019-03-15T05:53:18.146Z,98660.77
2019-03-15T05:53:49.304Z,98682.55
2019-03-15T05:54:20.516Z,98682.55
2019-03-15T05:54:51.748Z,98689.94
2019-03-15T05:55:23.289Z,98663.38
2019-03-15T05:55:54.535Z,98678.23
2019-03-15T05:56:25.770Z,98678.23
2019-03-15T05:56:57.071Z,98664.23
2019-03-15T05:57:28.275Z,98684.75
2019-03-15T05:57:59.684Z,98684.75
2019-03-15T05:58:30.864Z,98681.27
2019-03-15T05:59:02.068Z,98681.27
2019-03-15T05:59:33.246Z,98687.78
2019-03-15T06:00:11.224Z,98687.78
2019-03-15T06:00:42.381Z,98683.02
2019-03-15T06:01:13.592Z,98678.66
2019-03-15T06:01:44.746Z,98695.63
2019-03-15T06:02:15.948Z,98668.17
2019-03-15T06:02:47.108Z,98692.56
2019-03-15T06:03:18.313Z,98667.30
2019-03-15T06:03:49.520Z,98691.70
2019-03-15T06:04:20.805Z,98690.82
2019-03-15T06:04:52.094Z,98690.82
2019-03-15T06:05:23.479Z,98676.84
2019-03-15T06:05:54.673Z,98688.21
2019-03-15T06:06:25.854Z,98688.21
2019-03-15T06:06:58.035Z,98673.38
2019-03-15T06:07:29.231Z,98688.61
2019-03-15T06:08:00.417Z,98691.22
2019-03-15T06:08:31.625Z,98696.44